Time;durP1;ratioP1;P1;durP2;ratioP2;P2;SDS_P1;SDS_P2;PMS_P1;PMS_P2;Temp;Humidity;BMP_temperature;BMP_pressure;BME280_temperature;BME280_humidity;BME280_pressure;Samples;Min_cycle;Max_cycle;Signal;HPM_P1;HPM_P2
2023/08/26 00:02:03;;;;;;;1.95;0.50;;;;;;;12.89;100.00;99815.94;4980752;28;20030;-96
2023/08/26 00:08:29;;;;;;;;;;;;;;;;;;;;;
2023/08/26 00:19:32;;;;;;;0.63;0.43;;;;;;;12.56;100.00;99794.28;4850763;29;20109;-96
2023/08/26 00:26:05;;;;;;;0.98;0.43;;;;;;;12.46;100.00;99793.31;4965002;23;20039;-96
2023/08/26 00:34:35;;;;;;;2.58;1.15;;;;;;;12.40;100.00;99785.06;5010554;28;20510;-96
2023/08/26 00:47:15;;;;;;;1.02;0.60;;;;;;;12.18;100.00;99772.94;4991923;28;20066;-92
2023/08/26 00:49:43;;;;;;;1.90;0.70;;;;;;;12.07;100.00;99772.06;5216332;23;20038;-96
2023/08/26 00:52:09;;;;;;;1.20;0.73;;;;;;;12.06;100.00;99773.03;5003703;28;20499;-96
2023/08/26 00:54:35;;;;;;;0.55;0.55;;;;;;;11.90;100.00;99773.31;4993024;28;20066;-96
2023/08/26 00:57:04;;;;;;;2.22;0.55;;;;;;;11.94;100.00;99772.97;4994691;28;20484;-96
2023/08/26 00:59:29;;;;;;;4.95;0.75;;;;;;;12.12;100.00;99767.38;4996579;28;20041;-96
2023/08/26 01:01:55;;;;;;;1.33;0.55;;;;;;;12.02;100.00;99781.94;4998086;28;20121;-96
2023/08/26 01:04:21;;;;;;;5.07;0.90;;;;;;;12.05;100.00;99772.22;4994219;28;20035;-96
2023/08/26 01:06:46;;;;;;;1.13;0.60;;;;;;;11.99;100.00;99763.13;4993802;28;20471;-96
2023/08/26 01:09:14;;;;;;;1.65;0.70;;;;;;;11.92;100.00;99766.28;5000027;28;20029;-96
2023/08/26 01:11:50;;;;;;;1.95;0.60;;;;;;;11.81;100.00;99759.28;5005772;28;20058;-96
2023/08/26 01:14:49;;;;;;;1.63;0.90;;;;;;;11.79;100.00;99769.72;5106799;23;20038;-96
2023/08/26 01:17:18;;;;;;;4.03;0.90;;;;;;;11.80;100.00;99767.97;5104234;23;20124;-96
2023/08/26 01:19:45;;;;;;;2.75;0.90;;;;;;;11.66;100.00;99770.75;5003099;28;20029;-96
2023/08/26 01:24:39;;;;;;;1.35;0.80;;;;;;;11.77;100.00;99778.53;4978577;28;20061;-96
2023/08/26 01:27:05;;;;;;;2.22;1.00;;;;;;;11.76;100.00;99782.06;4986383;28;20039;-95
2023/08/26 01:29:30;;;;;;;2.47;0.82;;;;;;;11.79;100.00;99782.66;4975975;28;20031;-96
2023/08/26 01:32:05;;;;;;;0.98;0.75;;;;;;;11.82;100.00;99783.38;4976108;28;20429;-94
2023/08/26 01:34:33;;;;;;;3.42;1.02;;;;;;;11.79;100.00;99789.59;4974031;28;20492;-96
2023/08/26 01:37:01;;;;;;;1.80;0.95;;;;;;;11.78;100.00;99780.22;4974293;28;20039;-95
2023/08/26 01:39:28;;;;;;;1.05;0.68;;;;;;;12.00;100.00;99784.66;4978798;28;20378;-96
2023/08/26 01:41:56;;;;;;;1.45;0.70;;;;;;;11.76;100.00;99777.72;4982391;28;20480;-96
2023/08/26 01:44:22;;;;;;;1.98;1.05;;;;;;;11.83;100.00;99778.09;4985161;28;20030;-96
2023/08/26 01:46:47;;;;;;;8.23;1.00;;;;;;;11.82;100.00;99781.63;4974649;28;20041;-96
2023/08/26 01:49:13;;;;;;;2.35;0.90;;;;;;;11.85;100.00;99781.41;4976613;28;20033;-96
2023/08/26 01:51:39;;;;;;;2.47;1.13;;;;;;;11.98;100.00;99776.19;4978172;28;20025;-96
2023/08/26 01:54:06;;;;;;;1.83;1.08;;;;;;;11.94;100.00;99791.09;4973500;28;20027;-96
2023/08/26 01:56:32;;;;;;;3.88;1.00;;;;;;;12.04;100.00;99785.25;4973482;28;20030;-96
2023/08/26 01:58:57;;;;;;;2.50;1.30;;;;;;;11.89;100.00;99790.59;4974455;28;20019;-96
2023/08/26 02:01:22;;;;;;;4.38;1.63;;;;;;;11.96;100.00;99776.28;4956832;28;20481;-95
2023/08/26 02:03:48;;;;;;;4.72;1.80;;;;;;;11.87;100.00;99769.19;4953876;29;20023;-96
2023/08/26 02:06:13;;;;;;;4.20;2.00;;;;;;;11.92;100.00;99780.03;4955250;28;20038;-95
2023/08/26 02:08:39;;;;;;;4.00;1.95;;;;;;;11.92;100.00;99772.28;4957973;28;20027;-96
2023/08/26 02:11:04;;;;;;;4.43;2.38;;;;;;;11.87;100.00;99779.53;4976163;28;20031;-96
2023/08/26 02:13:30;;;;;;;2.28;2.05;;;;;;;11.99;100.00;99778.63;4973977;28;20035;-96
2023/08/26 02:15:56;;;;;;;3.38;2.05;;;;;;;11.99;100.00;99790.75;4972959;28;20069;-96
2023/08/26 02:18:22;;;;;;;3.17;2.22;;;;;;;12.02;100.00;99792.28;4973087;28;20061;-96
2023/08/26 02:20:48;;;;;;;4.68;2.30;;;;;;;12.06;100.00;99788.53;4970400;28;20429;-96
2023/08/26 02:23:14;;;;;;;2.60;2.00;;;;;;;11.92;100.00;99797.31;4970952;28;20031;-96
2023/08/26 02:25:39;;;;;;;5.07;2.90;;;;;;;12.06;100.00;99793.72;4972491;28;20512;-95
2023/08/26 02:28:05;;;;;;;4.43;2.70;;;;;;;12.15;100.00;99786.09;4973752;28;20030;-95
2023/08/26 02:30:31;;;;;;;6.53;3.22;;;;;;;12.43;100.00;99786.59;4977466;28;20473;-96
2023/08/26 02:32:56;;;;;;;6.20;2.78;;;;;;;12.29;100.00;99779.91;4973793;28;20113;-95
2023/08/26 02:35:21;;;;;;;7.10;3.17;;;;;;;12.30;100.00;99776.38;4972362;28;20489;-94
2023/08/26 02:37:47;;;;;;;3.33;2.55;;;;;;;12.37;100.00;99782.72;4971839;28;20030;-95
2023/08/26 02:40:12;;;;;;;4.55;2.80;;;;;;;12.31;100.00;99766.84;4976559;28;20456;-95
2023/08/26 02:46:01;;;;;;;4.88;3.22;;;;;;;12.29;100.00;99755.78;5657145;23;20111;-96
2023/08/26 02:51:02;;;;;;;4.63;2.83;;;;;;;12.30;100.00;99747.91;5079295;23;20582;-96
2023/08/26 02:53:29;;;;;;;5.07;3.17;;;;;;;12.26;100.00;99751.66;4991689;28;20050;-96
2023/08/26 02:55:55;;;;;;;4.85;3.03;;;;;;;12.36;100.00;99757.81;4997068;28;20041;-96
2023/08/26 02:58:21;;;;;;;4.20;2.60;;;;;;;12.32;100.00;99758.97;4995850;28;20096;-95
2023/08/26 03:00:47;;;;;;;4.93;3.55;;;;;;;12.38;100.00;99762.84;4991890;28;20484;-95
2023/08/26 03:03:15;;;;;;;7.45;3.88;;;;;;;12.37;100.00;99767.19;4992874;28;20376;-96
2023/08/26 03:05:41;;;;;;;4.90;3.17;;;;;;;12.38;100.00;99763.66;4991954;28;20037;-96
2023/08/26 03:08:07;;;;;;;3.97;3.42;;;;;;;12.34;100.00;99756.28;4991742;28;20027;-96
2023/08/26 03:10:33;;;;;;;3.92;3.00;;;;;;;12.31;100.00;99752.13;4990825;28;20089;-96
2023/08/26 03:12:58;;;;;;;6.15;3.15;;;;;;;12.28;100.00;99757.53;4992865;28;20477;-96
2023/08/26 03:15:28;;;;;;;5.38;2.28;;;;;;;12.26;100.00;99748.25;4991878;28;20391;-96
2023/08/26 03:17:54;;;;;;;3.97;1.88;;;;;;;12.23;100.00;99748.50;4991725;28;20031;-95
2023/08/26 03:20:19;;;;;;;5.88;2.10;;;;;;;12.20;100.00;99744.38;4990661;28;20034;-94
2023/08/26 03:22:45;;;;;;;2.47;1.65;;;;;;;12.16;100.00;99737.75;4995076;28;20441;-96
2023/08/26 03:25:11;;;;;;;3.53;2.30;;;;;;;12.18;100.00;99735.88;4992862;28;20018;-96
2023/08/26 03:27:36;;;;;;;4.00;1.88;;;;;;;12.22;100.00;99729.56;4991704;28;20037;-95
2023/08/26 03:30:02;;;;;;;3.08;1.40;;;;;;;12.17;100.00;99734.25;4990978;28;20089;-96
2023/08/26 03:34:58;;;;;;;1.48;1.08;;;;;;;12.05;100.00;99725.66;4977231;28;20489;-95
2023/08/26 03:37:24;;;;;;;2.65;0.90;;;;;;;11.97;100.00;99721.06;4982196;28;20033;-96
2023/08/26 03:39:50;;;;;;;1.95;1.30;;;;;;;11.98;100.00;99717.53;4979336;28;20047;-96
2023/08/26 03:42:15;;;;;;;1.13;1.02;;;;;;;11.97;100.00;99712.44;4978422;28;20027;-96
2023/08/26 03:44:41;;;;;;;1.42;1.10;;;;;;;11.94;100.00;99710.91;4977312;28;20047;-96
2023/08/26 03:47:07;;;;;;;2.30;1.10;;;;;;;11.96;100.00;99716.81;4979985;28;20027;-96
2023/08/26 03:49:32;;;;;;;4.78;1.08;;;;;;;11.94;100.00;99718.69;4978354;28;20028;-96
2023/08/26 03:51:58;;;;;;;1.52;0.95;;;;;;;11.95;100.00;99720.34;4979502;28;20062;-96
2023/08/26 03:54:24;;;;;;;1.00;0.80;;;;;;;11.91;100.00;99716.31;4981511;28;20030;-96
2023/08/26 03:56:49;;;;;;;1.40;0.80;;;;;;;11.77;100.00;99719.91;4982967;28;20525;-96
2023/08/26 04:02:26;;;;;;;3.50;0.88;;;;;;;11.75;100.00;99718.38;5433961;23;20049;-96
2023/08/26 04:04:51;;;;;;;5.70;0.90;;;;;;;11.63;100.00;99709.78;5046716;28;20597;-96
2023/08/26 04:07:17;;;;;;;2.67;0.80;;;;;;;11.64;100.00;99716.59;5039974;28;20041;-96
2023/08/26 04:09:43;;;;;;;6.13;0.60;;;;;;;11.52;100.00;99715.72;5040371;28;20479;-96
2023/08/26 04:12:08;;;;;;;0.50;0.50;;;;;;;11.55;100.00;99707.72;5005729;28;20034;-96
2023/08/26 04:14:34;;;;;;;2.80;0.60;;;;;;;11.56;100.00;99709.41;5005767;28;20027;-96
2023/08/26 04:17:03;;;;;;;0.98;0.50;;;;;;;11.36;100.00;99712.59;5003825;28;20031;-96
2023/08/26 04:19:30;;;;;;;2.50;0.60;;;;;;;11.19;100.00;99713.78;5001462;28;20109;-96
2023/08/26 04:21:57;;;;;;;2.95;0.68;;;;;;;11.24;100.00;99711.72;5029636;28;20037;-96
2023/08/26 04:24:22;;;;;;;1.55;0.63;;;;;;;11.27;100.00;99721.84;5031462;28;20065;-96
2023/08/26 04:26:48;;;;;;;0.40;0.40;;;;;;;11.11;100.00;99719.50;5030709;28;20061;-95
2023/08/26 04:29:13;;;;;;;0.70;0.50;;;;;;;11.11;100.00;99716.94;4996422;28;20045;-96
2023/08/26 04:31:38;;;;;;;0.57;0.50;;;;;;;11.07;100.00;99712.94;5033721;28;20472;-96
2023/08/26 04:34:04;;;;;;;0.93;0.52;;;;;;;11.01;100.00;99712.53;5017174;28;20028;-96
2023/08/26 04:36:29;;;;;;;1.13;0.40;;;;;;;11.00;100.00;99714.31;5018307;28;20022;-96
2023/08/26 04:38:56;;;;;;;1.38;0.50;;;;;;;11.07;100.00;99715.53;5018052;28;20030;-96
2023/08/26 04:41:23;;;;;;;1.95;0.20;;;;;;;11.00;100.00;99716.03;5016742;28;20029;-96
2023/08/26 04:43:49;;;;;;;1.00;0.47;;;;;;;10.96;100.00;99718.03;5017014;28;20022;-96
2023/08/26 04:46:15;;;;;;;0.85;0.50;;;;;;;10.96;100.00;99724.94;5015987;28;20083;-96
2023/08/26 04:48:40;;;;;;;2.05;0.40;;;;;;;10.95;100.00;99724.13;5016192;28;20109;-96
2023/08/26 04:51:06;;;;;;;0.43;0.38;;;;;;;10.90;100.00;99723.63;5015804;28;20026;-96
2023/08/26 04:53:31;;;;;;;3.00;0.35;;;;;;;10.88;100.00;99723.72;5017448;28;20092;-96
2023/08/26 04:55:56;;;;;;;1.85;0.50;;;;;;;10.78;100.00;99719.31;5017319;28;20081;-96
2023/08/26 04:58:22;;;;;;;1.05;0.30;;;;;;;10.80;100.00;99720.88;5018144;28;20036;-96
2023/08/26 05:00:47;;;;;;;0.73;0.30;;;;;;;10.71;100.00;99729.25;5009298;28;20033;-96
2023/08/26 05:03:12;;;;;;;1.02;0.50;;;;;;;10.75;100.00;99732.44;4997055;28;20038;-96
2023/08/26 05:05:41;;;;;;;1.00;0.47;;;;;;;10.68;100.00;99722.53;5001823;28;20030;-96
2023/08/26 05:08:08;;;;;;;0.60;0.40;;;;;;;10.76;100.00;99721.19;5003162;28;20499;-95
2023/08/26 05:10:36;;;;;;;1.35;0.40;;;;;;;10.79;100.00;99720.97;5008258;28;20032;-96
2023/08/26 05:13:02;;;;;;;1.73;0.70;;;;;;;10.76;100.00;99728.94;5022984;28;20026;-96
2023/08/26 05:15:29;;;;;;;0.70;0.40;;;;;;;10.76;100.00;99728.94;5020576;28;20022;-96
2023/08/26 05:17:55;;;;;;;3.30;1.08;;;;;;;10.72;100.00;99725.72;5022461;28;20529;-96
2023/08/26 05:20:20;;;;;;;0.70;0.70;;;;;;;10.70;100.00;99720.69;5025694;28;20113;-96
2023/08/26 05:22:46;;;;;;;1.20;0.82;;;;;;;10.75;100.00;99727.28;5022088;28;20383;-96
2023/08/26 05:25:11;;;;;;;2.67;1.45;;;;;;;10.95;100.00;99731.88;5017500;28;20030;-96
2023/08/26 05:27:37;;;;;;;1.63;1.10;;;;;;;10.89;100.00;99724.56;5027213;28;20040;-96
2023/08/26 05:30:03;;;;;;;1.10;0.93;;;;;;;10.88;100.00;99723.72;5021268;28;20061;-96
2023/08/26 05:32:29;;;;;;;1.48;1.15;;;;;;;10.98;100.00;99723.91;5018125;28;20022;-96
2023/08/26 05:34:54;;;;;;;2.75;1.10;;;;;;;11.08;100.00;99729.25;5018261;28;20137;-96
2023/08/26 05:37:20;;;;;;;2.45;1.40;;;;;;;11.08;100.00;99730.06;5018005;28;20606;-96
2023/08/26 05:39:45;;;;;;;2.80;1.45;;;;;;;11.17;100.00;99725.16;5020051;28;20030;-96
2023/08/26 05:42:11;;;;;;;2.00;1.27;;;;;;;11.30;100.00;99739.69;5020701;28;20022;-96
2023/08/26 05:44:36;;;;;;;2.33;1.70;;;;;;;11.31;100.00;99725.00;5020887;28;20052;-96
2023/08/26 05:47:02;;;;;;;1.70;1.60;;;;;;;11.37;100.00;99728.94;5019292;28;20061;-96
2023/08/26 05:49:27;;;;;;;3.08;1.55;;;;;;;11.40;100.00;99724.34;5028677;28;20091;-94
2023/08/26 05:51:53;;;;;;;2.40;1.80;;;;;;;11.54;100.00;99731.13;5023039;28;20041;-96
2023/08/26 05:54:18;;;;;;;3.10;1.67;;;;;;;11.68;100.00;99727.50;5017959;28;20099;-96
2023/08/26 05:56:44;;;;;;;1.83;1.20;;;;;;;11.75;100.00;99723.53;5005172;28;20074;-96
2023/08/26 05:59:09;;;;;;;2.25;1.60;;;;;;;11.86;100.00;99725.34;4995099;28;20061;-96
2023/08/26 06:01:34;;;;;;;2.60;1.50;;;;;;;11.96;100.00;99718.56;5018023;28;20551;-96
2023/08/26 06:04:00;;;;;;;5.70;1.50;;;;;;;12.02;100.00;99718.09;4994620;28;20058;-96
2023/08/26 06:06:26;;;;;;;3.67;1.65;;;;;;;12.09;100.00;99716.69;4994866;28;20092;-96
2023/08/26 06:08:51;;;;;;;3.47;1.63;;;;;;;12.19;100.00;99719.41;4994334;28;20421;-96
2023/08/26 06:11:17;;;;;;;4.25;2.00;;;;;;;12.23;100.00;99718.25;4995145;28;20026;-96
2023/08/26 06:13:42;;;;;;;3.00;1.58;;;;;;;12.24;100.00;99709.56;5006591;28;20105;-96
2023/08/26 06:16:07;;;;;;;3.53;2.03;;;;;;;12.37;100.00;99720.63;5013254;28;20483;-96
2023/08/26 06:18:33;;;;;;;4.10;1.65;;;;;;;12.40;100.00;99725.56;5023674;28;20156;-96
2023/08/26 06:20:59;;;;;;;3.03;1.90;;;;;;;12.46;100.00;99724.28;5019331;28;20033;-95
2023/08/26 06:23:24;;;;;;;5.28;1.90;;;;;;;12.43;100.00;99727.91;5007646;28;20117;-96
2023/08/26 06:25:53;;;;;;;2.60;1.70;;;;;;;12.39;100.00;99728.28;5012090;28;20029;-96
2023/08/26 06:28:19;;;;;;;6.63;2.08;;;;;;;12.35;100.00;99727.66;5010416;28;20026;-96
2023/08/26 06:30:45;;;;;;;4.03;2.17;;;;;;;12.41;100.00;99723.78;5012011;28;20021;-96
2023/08/26 06:33:10;;;;;;;2.15;1.95;;;;;;;12.47;100.00;99730.28;4997842;28;20058;-96
2023/08/26 06:35:36;;;;;;;2.47;1.70;;;;;;;12.62;100.00;99724.72;5007925;28;20460;-96
2023/08/26 06:40:37;;;;;;;3.95;1.63;;;;;;;12.95;100.00;99729.97;5162986;23;20509;-96
2023/08/26 06:43:03;;;;;;;1.38;1.27;;;;;;;13.06;100.00;99729.97;5177945;23;20047;-96
2023/08/26 06:45:29;;;;;;;2.92;1.88;;;;;;;13.13;100.00;99732.91;5001079;28;20106;-96
2023/08/26 06:47:54;;;;;;;1.77;1.50;;;;;;;13.31;100.00;99728.03;4997890;28;20085;-96
2023/08/26 06:50:21;;;;;;;3.63;1.60;;;;;;;14.43;100.00;99735.19;5161925;23;20073;-96
2023/08/26 06:52:47;;;;;;;4.43;1.83;;;;;;;16.75;100.00;99731.88;5007121;28;20038;-96
2023/08/26 06:55:12;;;;;;;5.00;1.40;;;;;;;19.73;84.46;99728.91;5000985;28;20068;-96
2023/08/26 07:07:52;;;;;;;3.35;0.40;;;;;;;22.06;60.41;99745.78;5009987;28;20054;-96
2023/08/26 07:10:18;;;;;;;1.25;0.60;;;;;;;20.32;68.52;99749.63;5002013;28;20026;-96
2023/08/26 07:12:43;;;;;;;2.35;0.70;;;;;;;18.99;76.33;99738.44;4997416;28;20022;-96
2023/08/26 07:15:14;;;;;;;2.05;0.60;;;;;;;18.22;83.50;99754.13;4991593;28;20053;-95
2023/08/26 07:17:40;;;;;;;1.15;0.40;;;;;;;17.82;89.72;99758.06;5079666;23;20057;-96
2023/08/26 07:20:06;;;;;;;1.33;0.55;;;;;;;17.47;92.13;99745.84;5021149;28;20041;-96
2023/08/26 07:22:31;;;;;;;1.73;0.50;;;;;;;17.03;94.31;99741.34;5003703;28;20018;-96
2023/08/26 07:24:56;;;;;;;2.45;0.82;;;;;;;16.86;100.00;99744.75;4999960;28;20185;-96
2023/08/26 07:27:23;;;;;;;2.45;0.70;;;;;;;16.27;100.00;99744.97;5011366;28;20068;-96
2023/08/26 07:29:48;;;;;;;1.00;0.35;;;;;;;16.44;100.00;99746.00;4998710;28;20014;-95
2023/08/26 07:32:14;;;;;;;2.05;0.50;;;;;;;16.46;100.00;99745.88;4997841;28;20034;-95
2023/08/26 07:34:39;;;;;;;1.30;0.43;;;;;;;16.19;100.00;99747.47;5021115;28;20044;-95
2023/08/26 07:37:05;;;;;;;2.38;0.52;;;;;;;16.45;100.00;99742.44;4996803;28;20156;-95
2023/08/26 07:39:30;;;;;;;1.92;0.60;;;;;;;16.42;100.00;99747.94;5001459;28;20112;-96
2023/08/26 07:41:55;;;;;;;3.08;0.63;;;;;;;15.80;100.00;99747.53;5002179;28;20044;-95
2023/08/26 07:44:21;;;;;;;2.30;0.60;;;;;;;15.70;100.00;99749.31;4996121;28;20033;-96
2023/08/26 07:46:46;;;;;;;2.90;0.43;;;;;;;15.48;100.00;99755.56;5005234;28;20086;-95
2023/08/26 07:49:11;;;;;;;3.20;0.88;;;;;;;15.41;100.00;99754.47;5016818;28;20471;-96
2023/08/26 07:51:37;;;;;;;1.02;0.60;;;;;;;15.09;100.00;99757.31;5008929;28;20017;-96
2023/08/26 07:54:03;;;;;;;5.32;0.70;;;;;;;15.19;100.00;99761.59;5014771;28;20052;-96
2023/08/26 07:56:29;;;;;;;3.55;0.60;;;;;;;15.38;100.00;99762.56;5009256;28;20018;-96
2023/08/26 07:58:54;;;;;;;1.42;0.98;;;;;;;16.12;100.00;99762.00;5007395;28;20120;-96
2023/08/26 08:01:20;;;;;;;1.98;0.40;;;;;;;16.89;100.00;99765.31;5010380;28;20022;-94
2023/08/26 08:03:45;;;;;;;1.85;0.47;;;;;;;16.79;100.00;99756.72;4995099;28;20468;-94
2023/08/26 08:06:10;;;;;;;1.75;0.40;;;;;;;16.69;100.00;99770.56;4997154;28;20441;-95
2023/08/26 08:11:23;;;;;;;4.70;0.80;;;;;;;16.63;100.00;99767.72;5060206;23;20095;-96
2023/08/26 08:13:50;;;;;;;4.35;1.08;;;;;;;17.15;100.00;99765.44;5010075;23;20073;-94
2023/08/26 08:16:15;;;;;;;1.30;0.63;;;;;;;17.04;100.00;99761.22;4997448;28;20026;-96
2023/08/26 08:18:41;;;;;;;2.53;1.00;;;;;;;17.02;100.00;99765.78;4992148;28;20022;-94
2023/08/26 08:21:08;;;;;;;2.83;1.00;;;;;;;16.96;100.00;99778.59;4983664;28;20529;-95
2023/08/26 08:23:36;;;;;;;7.72;2.00;;;;;;;16.83;100.00;99769.31;4997677;28;20564;-94
2023/08/26 08:26:03;;;;;;;5.88;1.48;;;;;;;17.20;100.00;99772.81;4986146;28;20033;-94
2023/08/26 08:28:28;;;;;;;2.88;1.60;;;;;;;17.28;100.00;99770.28;5114314;23;20042;-96
2023/08/26 08:33:29;;;;;;;5.13;1.30;;;;;;;17.29;100.00;99777.97;5506254;23;20049;-96
2023/08/26 08:35:55;;;;;;;1.58;0.95;;;;;;;17.56;100.00;99776.28;4999802;28;20018;-95
2023/08/26 08:38:21;;;;;;;6.88;1.83;;;;;;;17.70;100.00;99780.97;4991191;28;20069;-96
2023/08/26 08:40:47;;;;;;;3.85;1.23;;;;;;;18.01;100.00;99777.16;4982884;28;20027;-95
2023/08/26 08:43:15;;;;;;;4.10;1.08;;;;;;;18.54;98.93;99769.16;4990533;28;20034;-96
2023/08/26 08:45:46;;;;;;;4.28;1.70;;;;;;;18.80;95.69;99779.59;4996498;28;20530;-96
2023/08/26 08:48:12;;;;;;;3.85;1.33;;;;;;;18.29;97.09;99770.81;4989989;28;20369;-96
2023/08/26 08:50:37;;;;;;;2.58;1.30;;;;;;;18.27;100.00;99783.22;4992021;28;20015;-95
2023/08/26 08:53:07;;;;;;;5.18;1.38;;;;;;;18.04;99.12;99782.06;4996301;28;20038;-96
2023/08/26 08:55:50;;;;;;;3.40;1.00;;;;;;;18.11;93.66;99781.28;4988984;28;20034;-96
2023/08/26 08:58:16;;;;;;;4.20;1.02;;;;;;;17.74;96.68;99782.28;4977828;28;20173;-96
2023/08/26 09:00:42;;;;;;;2.55;0.98;;;;;;;17.65;95.69;99780.56;5010937;28;20034;-96
2023/08/26 09:03:08;;;;;;;0.80;0.60;;;;;;;17.32;99.40;99782.88;4987717;28;20027;-96
2023/08/26 09:05:34;;;;;;;9.63;1.50;;;;;;;17.15;97.92;99785.47;4974766;28;20105;-96
2023/08/26 09:08:02;;;;;;;3.47;0.68;;;;;;;17.47;99.75;99783.19;4982070;28;20081;-95
2023/08/26 09:23:09;;;;;;;2.45;0.57;;;;;;;17.65;90.98;99795.41;4999383;28;20042;-96
2023/08/26 09:25:36;;;;;;;3.33;0.60;;;;;;;17.82;88.21;99792.00;5005537;28;20032;-96
2023/08/26 09:28:03;;;;;;;3.85;0.50;;;;;;;17.95;88.92;99789.84;4986307;28;20041;-96
2023/08/26 09:30:29;;;;;;;2.13;0.50;;;;;;;18.26;89.63;99784.16;5012122;28;20552;-96
2023/08/26 09:32:55;;;;;;;4.22;0.90;;;;;;;18.22;86.92;99795.91;4997215;28;20022;-96
2023/08/26 09:35:21;;;;;;;1.48;0.20;;;;;;;18.78;78.77;99793.81;4991716;28;20046;-96
2023/08/26 09:37:55;;;;;;;2.50;0.38;;;;;;;19.37;78.73;99799.03;4961701;28;20037;-96
2023/08/26 09:40:22;;;;;;;2.05;0.50;;;;;;;19.65;74.95;99791.72;4978218;28;20041;-96
2023/08/26 09:42:47;;;;;;;3.45;0.52;;;;;;;19.51;72.31;99795.81;4960763;28;20015;-96
2023/08/26 09:45:14;;;;;;;1.98;0.30;;;;;;;19.22;74.43;99802.28;5058556;23;20108;-96
2023/08/26 09:47:40;;;;;;;3.42;0.40;;;;;;;18.88;73.15;99806.75;4990828;28;20503;-96
2023/08/26 09:50:07;;;;;;;3.92;0.45;;;;;;;19.24;72.09;99807.38;4991217;28;20034;-96
2023/08/26 09:52:46;;;;;;;1.52;0.30;;;;;;;19.33;71.02;99816.84;4987032;28;20389;-95
2023/08/26 09:55:12;;;;;;;3.05;0.40;;;;;;;19.40;71.50;99811.81;5168944;23;20489;-95
2023/08/26 09:57:38;;;;;;;1.42;0.28;;;;;;;20.15;68.59;99816.94;4985592;28;20038;-96
2023/08/26 10:00:05;;;;;;;2.45;0.32;;;;;;;20.58;69.29;99806.25;4987247;28;20438;-94
2023/08/26 10:02:34;;;;;;;2.47;0.35;;;;;;;20.98;65.39;99812.34;5197809;23;20021;-94
2023/08/26 10:05:05;;;;;;;3.65;0.60;;;;;;;21.00;63.49;99810.38;5012600;23;20371;-94
2023/08/26 10:07:31;;;;;;;3.47;0.40;;;;;;;21.24;63.48;99807.63;4973703;28;20027;-93
2023/08/26 10:10:05;;;;;;;4.63;1.00;;;;;;;21.10;63.32;99819.66;4973427;28;20127;-94
2023/08/26 10:12:36;;;;;;;2.05;0.47;;;;;;;21.63;64.52;99822.50;4983973;28;20029;-94
2023/08/26 10:15:02;;;;;;;1.75;0.35;;;;;;;21.49;61.59;99816.19;4983050;28;20030;-95
2023/08/26 10:17:31;;;;;;;2.25;0.40;;;;;;;20.99;64.19;99824.47;4988193;28;20157;-96
2023/08/26 10:19:57;;;;;;;1.58;0.30;;;;;;;20.26;64.59;99823.66;5061322;23;20050;-95
2023/08/26 10:22:24;;;;;;;1.25;0.35;;;;;;;20.25;63.55;99817.59;4991324;28;20030;-95
2023/08/26 10:24:50;;;;;;;5.82;0.50;;;;;;;19.88;63.50;99823.34;4984135;28;20023;-94
2023/08/26 10:27:16;;;;;;;2.05;0.47;;;;;;;19.92;66.69;99829.88;4973400;28;20447;-96
2023/08/26 10:29:43;;;;;;;5.38;0.57;;;;;;;19.53;67.28;99817.41;4972884;28;20023;-94
2023/08/26 10:32:19;;;;;;;1.55;0.43;;;;;;;20.02;68.87;99827.09;4974452;28;20030;-94
2023/08/26 10:35:09;;;;;;;0.70;0.30;;;;;;;20.28;62.55;99822.50;4980834;28;20085;-96
2023/08/26 10:37:35;;;;;;;2.55;0.20;;;;;;;20.14;63.06;99819.72;4986790;28;20076;-94
2023/08/26 10:40:15;;;;;;;3.95;0.45;;;;;;;20.21;62.08;99825.94;4974928;28;20429;-96
2023/08/26 10:43:17;;;;;;;2.70;0.50;;;;;;;20.78;63.70;99823.25;4985457;28;20088;-96
2023/08/26 10:45:47;;;;;;;1.48;0.40;;;;;;;21.04;62.90;99816.88;4922091;29;20048;-96
2023/08/26 10:48:12;;;;;;;2.75;0.30;;;;;;;21.28;63.97;99821.19;4975383;28;20049;-96
2023/08/26 10:50:40;;;;;;;3.35;0.50;;;;;;;20.98;59.34;99817.59;4985444;28;20026;-96
2023/08/26 10:53:19;;;;;;;6.75;0.90;;;;;;;20.98;60.09;99813.16;4984391;28;20127;-96
2023/08/26 10:55:47;;;;;;;2.03;0.70;;;;;;;20.70;62.68;99815.38;4977342;28;20089;-96
2023/08/26 10:58:16;;;;;;;2.30;0.40;;;;;;;20.34;61.41;99812.31;4981210;28;20118;-95
2023/08/26 11:00:52;;;;;;;10.63;0.85;;;;;;;20.41;62.99;99810.66;4976568;28;20014;-96
2023/08/26 11:03:20;;;;;;;2.42;0.55;;;;;;;20.17;63.95;99808.94;4977801;28;20388;-96
2023/08/26 11:05:59;;;;;;;2.75;0.57;;;;;;;19.87;64.88;99809.44;4977411;28;20074;-96
2023/08/26 11:08:25;;;;;;;2.67;0.55;;;;;;;20.18;64.78;99811.38;4971554;28;20109;-95
2023/08/26 11:10:51;;;;;;;1.98;0.52;;;;;;;20.33;62.15;99811.50;4981469;28;20548;-95
2023/08/26 11:13:16;;;;;;;4.43;0.47;;;;;;;20.53;63.24;99807.56;4985990;28;20127;-95
2023/08/26 11:15:43;;;;;;;3.28;0.30;;;;;;;20.22;62.94;99809.25;4989381;28;20022;-95
2023/08/26 11:18:10;;;;;;;4.10;0.50;;;;;;;20.09;61.71;99812.34;4988631;28;20061;-94
2023/08/26 11:20:36;;;;;;;1.20;0.30;;;;;;;20.00;64.51;99813.38;4983828;28;20027;-95
2023/08/26 11:23:03;;;;;;;1.80;0.63;;;;;;;19.99;63.93;99815.16;4976947;28;20022;-96
2023/08/26 11:25:29;;;;;;;1.85;0.38;;;;;;;20.46;64.03;99809.22;4990174;28;20053;-94
2023/08/26 11:27:54;;;;;;;0.60;0.38;;;;;;;20.74;61.63;99809.63;4976898;28;20482;-95
2023/08/26 11:30:20;;;;;;;1.92;0.40;;;;;;;20.83;60.96;99809.63;4989089;28;20026;-94
2023/08/26 11:32:48;;;;;;;2.75;1.15;;;;;;;21.14;61.92;99812.25;4989615;28;20096;-94
2023/08/26 11:35:14;;;;;;;3.08;0.75;;;;;;;21.71;59.72;99806.69;4986885;28;20061;-94
2023/08/26 11:37:45;;;;;;;3.22;0.80;;;;;;;21.87;58.46;99808.34;4986250;28;20393;-93
2023/08/26 11:40:11;;;;;;;5.45;1.80;;;;;;;21.57;56.57;99810.88;4977287;28;20031;-93
2023/08/26 11:42:37;;;;;;;3.97;0.63;;;;;;;21.76;57.36;99811.41;4976805;28;20031;-93
2023/08/26 11:45:08;;;;;;;7.80;2.22;;;;;;;22.64;56.73;99805.50;4975296;28;20026;-95
2023/08/26 11:47:33;;;;;;;2.92;0.52;;;;;;;23.21;53.47;99806.59;4988291;28;20084;-93
2023/08/26 11:49:58;;;;;;;2.80;0.73;;;;;;;23.61;52.66;99801.75;4977947;28;20027;-94
2023/08/26 11:52:34;;;;;;;2.03;0.60;;;;;;;23.63;51.82;99799.75;4981352;28;20050;-96
2023/08/26 11:55:04;;;;;;;2.15;0.50;;;;;;;22.68;51.87;99799.84;4988497;28;20383;-95
2023/08/26 11:57:38;;;;;;;2.70;0.60;;;;;;;22.22;54.41;99812.19;4973555;28;20673;-94
2023/08/26 12:00:16;;;;;;;3.20;1.02;;;;;;;21.77;55.12;99808.59;4978978;28;20030;-96
2023/08/26 12:02:53;;;;;;;7.30;0.73;;;;;;;21.67;56.98;99808.00;4973908;28;20572;-96
2023/08/26 12:05:19;;;;;;;5.43;1.15;;;;;;;21.35;57.95;99809.84;4989051;28;20129;-96
2023/08/26 12:07:49;;;;;;;2.75;0.88;;;;;;;21.09;56.96;99811.94;4981799;28;20025;-96
2023/08/26 12:10:19;;;;;;;2.55;0.77;;;;;;;21.66;56.20;99819.53;4989355;28;20133;-96
2023/08/26 12:12:47;;;;;;;2.33;0.70;;;;;;;21.31;55.60;99812.97;4999120;28;20542;-96
2023/08/26 12:15:17;;;;;;;3.17;0.80;;;;;;;20.84;55.69;99812.06;4992451;28;20121;-94
2023/08/26 12:17:47;;;;;;;2.45;0.80;;;;;;;21.26;54.78;99813.50;4984010;28;20034;-94
2023/08/26 12:20:27;;;;;;;2.42;0.70;;;;;;;21.95;53.87;99815.38;4975562;28;20484;-95
2023/08/26 12:22:55;;;;;;;1.88;0.70;;;;;;;21.67;54.40;99812.44;4973371;28;20030;-93
2023/08/26 12:25:23;;;;;;;5.55;0.80;;;;;;;21.85;55.35;99810.34;4973440;28;20027;-93
2023/08/26 12:27:49;;;;;;;2.72;0.80;;;;;;;21.91;54.00;99814.88;4983212;28;20038;-92
2023/08/26 12:30:14;;;;;;;2.80;0.80;;;;;;;21.47;54.36;99812.09;4983587;28;20109;-96
2023/08/26 12:32:39;;;;;;;4.25;0.80;;;;;;;21.19;54.20;99807.31;4981442;28;20064;-96
2023/08/26 12:35:06;;;;;;;2.38;0.70;;;;;;;22.03;53.95;99823.16;4989983;28;20069;-95
2023/08/26 12:37:32;;;;;;;3.92;1.60;;;;;;;21.92;52.60;99820.94;4992787;28;20038;-94
2023/08/26 12:39:59;;;;;;;3.33;0.68;;;;;;;22.48;53.31;99826.69;4979978;28;20030;-94
2023/08/26 12:42:25;;;;;;;2.83;0.80;;;;;;;22.04;54.79;99827.41;4978688;28;20050;-94
2023/08/26 12:44:50;;;;;;;3.00;0.60;;;;;;;21.77;54.19;99834.84;4977194;28;20154;-94
2023/08/26 12:47:16;;;;;;;2.78;0.60;;;;;;;20.74;56.04;99848.97;4991832;28;20086;-96